Latest Weather Observations for Munglinup West

IDW60801

Issued at 10:33 am WST Friday 3 July 2015 (issued every 30 minutes, with the page automatically refreshed every 10 minutes)

About weather observations | Map of weather stations | Latest weather observations for WA | Other Formats
Station Details ID: 012044 Name: MUNGLINUP WEST Lat: -33.55 Lon: 120.70 Height: 220.0 m
Data from the previous 72 hours. | See also: Recent months at Munglinup West
Date/Time
WST
Temp
°C
App
Temp
°C
Dew
Point
Rel
Hum
%
Delta-T
°C
Wind Press
QNH
hPa
Press
MSL
hPa
Rain
since 9 am
mm
Dir
 
Spd
km/h
Gust
km/h
Spd
kts
Gust
kts
03/10:30am 18.1 14.7 10.7 62 4.0 NW 19 28 10 15 1022.6 1022.7 0.0
03/10:00am 17.3 14.0 10.9 66 3.5 NW 19 24 10 13 1022.8 1022.9 0.0
03/09:30am 16.1 13.6 11.1 72 2.7 NW 15 24 8 13 1023.0 1023.1 0.0
03/09:00am 14.5 12.7 10.9 79 1.9 NW 11 20 6 11 1022.9 1023.0 1.0
03/08:30am 13.2 10.9 10.4 83 1.5 NNW 13 19 7 10 1022.9 1023.0 1.0
03/08:00am 12.6 10.8 10.7 88 1.0 NNW 11 15 6 8 1022.9 1023.0 1.0
03/07:30am 11.9 9.9 10.1 89 0.9 NNW 11 15 6 8 1022.6 1022.7 1.0
03/07:00am 12.1 10.5 10.3 89 0.9 NNW 9 13 5 7 1022.3 1022.4 1.0
03/06:30am 12.2 9.9 10.4 89 0.9 NNW 13 19 7 10 1022.1 1022.2 1.0
03/06:00am 12.2 9.9 10.4 89 0.9 NNW 13 19 7 10 1022.0 1022.1 1.0
03/05:30am 12.3 9.6 10.4 88 1.0 NNW 15 24 8 13 1021.9 1022.0 1.0
03/05:00am 12.0 9.3 10.2 89 0.9 NNW 15 24 8 13 1022.0 1022.1 1.0
03/04:30am 11.8 9.1 10.2 90 0.8 N 15 20 8 11 1021.8 1021.9 1.0
03/04:00am 11.7 9.0 10.3 91 0.7 N 15 22 8 12 1022.0 1022.1 1.0
03/03:30am 11.7 8.5 10.1 90 0.8 N 17 26 9 14 1022.2 1022.3 1.0
03/03:00am 11.9 9.2 10.3 90 0.8 N 15 24 8 13 1022.2 1022.3 1.0
03/02:30am 11.9 8.8 10.3 90 0.8 NNE 17 22 9 12 1022.4 1022.5 1.0
03/02:00am 11.7 8.6 10.3 91 0.7 N 17 26 9 14 1022.5 1022.6 1.0
03/01:30am 11.8 9.1 10.5 92 0.7 N 15 24 8 13 1022.9 1023.0 1.0
03/01:00am 11.6 8.6 10.5 93 0.6 N 17 24 9 13 1023.0 1023.1 1.0
03/12:30am 11.5 8.1 10.4 93 0.6 NNE 19 26 10 14 1023.1 1023.2 1.0
03/12:00am 11.5 7.9 10.4 93 0.6 NNE 20 28 11 15 1023.2 1023.3 1.0
 
Date/Time
WST
Temp
°C
App
Temp
°C
Dew
Point
Rel
Hum
%
Delta-T
°C
Wind Press
QNH
hPa
Press
MSL
hPa
Rain
since 9 am
mm
Dir
 
Spd
km/h
Gust
km/h
Spd
kts
Gust
kts
02/11:30pm 11.6 8.2 10.5 93 0.6 NNE 19 28 10 15 1023.3 1023.4 1.0
02/11:00pm 11.4 7.8 10.6 95 0.4 NNE 20 28 11 15 1023.3 1023.4 1.0
02/10:30pm 11.3 7.7 10.5 95 0.4 NNE 20 28 11 15 1023.5 1023.6 1.0
02/10:00pm 11.5 7.9 10.7 95 0.4 NNE 20 26 11 14 1023.8 1023.9 1.0
02/09:30pm 11.7 8.4 10.9 95 0.4 NNE 19 26 10 14 1023.9 1024.0 1.0
02/09:00pm 11.7 8.3 11.1 96 0.3 NNE 20 26 11 14 1024.2 1024.4 1.0
02/08:30pm 11.7 8.3 11.1 96 0.3 NNE 20 28 11 15 1024.2 1024.4 0.8
02/08:00pm 11.8 9.0 11.2 96 0.3 NNE 17 24 9 13 1024.3 1024.5 0.8
02/07:30pm 11.8 8.5 11.0 95 0.4 NNE 19 26 10 14 1024.5 1024.6 0.6
02/07:00pm 11.9 8.9 10.8 93 0.6 NNE 17 22 9 12 1024.2 1024.4 0.0
02/06:30pm 12.2 9.2 10.6 90 0.8 NNE 17 20 9 11 1024.1 1024.3 0.0
02/06:00pm 12.4 10.5 10.6 89 0.9 N 11 15 6 8 1024.3 1024.5 0.0
02/05:30pm 12.7 10.8 10.6 87 1.1 N 11 15 6 8 1024.3 1024.5 0.0
02/05:00pm 12.6 11.6 10.3 86 1.2 N 6 7 3 4 1024.2 1024.4 0.0
02/04:30pm 13.1 12.0 10.5 84 1.4 N 7 9 4 5 1024.2 1024.4 0.0
02/04:00pm 13.5 12.2 10.1 80 1.8 N 7 11 4 6 1024.3 1024.5 0.0
02/03:30pm 13.6 11.3 10.4 81 1.7 NNE 13 20 7 11 1023.6 1023.7 0.0
02/03:00pm 13.7 11.4 10.3 80 1.8 NNE 13 20 7 11 1023.4 1023.5 0.0
02/02:30pm 13.9 11.2 10.5 80 1.8 NNE 15 20 8 11 1023.3 1023.4 0.0
02/02:00pm 14.0 9.9 10.2 78 2.0 NNE 22 32 12 17 1023.4 1023.5 0.0
02/01:30pm 14.4 10.2 9.8 74 2.4 NNE 22 32 12 17 1023.6 1023.7 0.0
02/01:00pm 14.9 9.9 9.7 71 2.7 NNE 26 37 14 20 1023.7 1023.8 0.0
02/12:30pm 14.6 9.9 9.2 70 2.8 N 24 37 13 20 1024.7 1024.8 0.0
02/12:00pm 14.5 10.6 9.5 72 2.6 N 20 32 11 17 1025.3 1025.4 0.0
02/11:30am 15.0 11.4 9.8 71 2.7 N 19 26 10 14 1026.0 1026.1 0.0
02/11:00am 15.8 13.7 9.7 67 3.2 NNE 11 17 6 9 1026.2 1026.3 0.0
02/10:30am 15.7 13.9 9.4 66 3.3 N 9 11 5 6 1026.2 1026.3 0.0
02/10:00am 16.1 14.5 8.8 62 3.8 N 7 9 4 5 1026.1 1026.2 0.0
02/09:30am 15.0 13.4 8.0 63 3.5 NNW 6 6 3 3 1026.0 1026.1 0.0
02/09:00am 14.2 12.4 7.0 62 3.5 NNW 6 7 3 4 1026.1 1026.2 0.0
02/08:30am 14.2 12.0 6.1 58 3.9 NW 7 13 4 7 1026.1 1026.2 0.0
02/08:00am 13.1 10.8 5.5 60 3.6 NNW 7 9 4 5 1026.1 1026.2 0.0
02/07:30am 13.0 10.5 4.9 58 3.8 NW 7 9 4 5 1025.9 1026.0 0.0
02/07:00am 12.6 10.3 4.8 59 3.6 NNW 6 6 3 3 1025.8 1025.9 0.0
02/06:30am 12.7 10.2 4.7 58 3.7 NNW 7 9 4 5 1025.5 1025.6 0.0
02/06:00am 12.3 9.9 5.2 62 3.3 NNW 7 9 4 5 1025.2 1025.3 0.0
02/05:30am 12.2 9.5 5.4 63 3.2 N 9 11 5 6 1025.0 1025.1 0.0
02/05:00am 12.3 9.8 5.0 61 3.4 N 7 9 4 5 1024.7 1024.8 0.0
02/04:30am 12.8 10.0 5.0 59 3.6 NNW 9 9 5 5 1024.9 1025.0 0.0
02/04:00am 13.0 10.6 5.2 59 3.6 N 7 9 4 5 1024.9 1025.0 0.0
02/03:30am 13.4 11.0 5.1 57 3.9 N 7 7 4 4 1024.9 1025.0 0.0
02/03:00am 13.4 11.0 5.1 57 3.9 N 7 11 4 6 1025.0 1025.1 0.0
02/02:30am 13.2 10.8 5.4 59 3.7 NNE 7 9 4 5 1024.8 1024.9 0.0
02/02:00am 13.1 10.8 5.5 60 3.6 NNE 7 11 4 6 1025.2 1025.3 0.0
02/01:30am 12.7 10.0 5.6 62 3.4 NNE 9 11 5 6 1025.1 1025.2 0.0
02/01:00am 13.1 10.9 5.3 59 3.7 N 6 9 3 5 1025.6 1025.7 0.0
02/12:30am 13.0 10.6 5.4 60 3.6 NNW 7 11 4 6 1025.5 1025.6 0.0
02/12:00am 13.4 9.5 5.3 58 3.8 NNE 15 17 8 9 1025.6 1025.7 0.0
 
Date/Time
WST
Temp
°C
App
Temp
°C
Dew
Point
Rel
Hum
%
Delta-T
°C
Wind Press
QNH
hPa
Press
MSL
hPa
Rain
since 9 am
mm
Dir
 
Spd
km/h
Gust
km/h
Spd
kts
Gust
kts
01/11:30pm 13.1 9.6 5.3 59 3.7 NNE 13 15 7 8 1025.7 1025.8 0.0
01/11:00pm 12.4 8.8 4.9 60 3.5 NNE 13 15 7 8 1025.5 1025.6 0.0
01/10:30pm 13.2 9.5 4.6 56 4.0 NNE 13 17 7 9 1025.7 1025.8 0.0
01/10:00pm 13.0 9.0 4.9 58 3.8 NE 15 17 8 9 1025.7 1025.8 0.0
01/09:30pm 12.8 9.3 5.5 61 3.4 NE 13 17 7 9 1026.1 1026.2 0.0
01/09:00pm 14.2 11.0 5.0 54 4.3 NNE 11 13 6 7 1026.1 1026.2 0.0
01/08:30pm 14.2 10.8 5.8 57 4.0 NE 13 15 7 8 1025.9 1026.0 0.0
01/08:00pm 14.2 10.6 6.6 60 3.7 NE 15 17 8 9 1026.1 1026.2 0.0
01/07:30pm 14.0 11.3 7.3 64 3.3 NE 11 13 6 7 1026.0 1026.1 0.0
01/07:00pm 14.0 11.0 7.8 66 3.1 NE 13 15 7 8 1025.9 1026.0 0.0
01/06:30pm 15.3 12.3 7.6 60 3.9 NE 13 15 7 8 1025.7 1025.8 0.0
01/06:00pm 15.9 12.4 7.1 56 4.4 ENE 15 17 8 9 1025.2 1025.3 0.0
01/05:30pm 15.4 12.3 7.2 58 4.1 ENE 13 13 7 7 1025.0 1025.1 0.0
01/05:00pm 15.4 13.1 8.9 65 3.3 ENE 11 13 6 7 1025.0 1025.1 0.0
01/04:30pm 17.1 15.6 9.0 59 4.2 E 7 9 4 5 1024.8 1024.9 0.0
01/04:00pm 18.1 17.2 10.7 62 4.0 E 6 7 3 4 1024.6 1024.7 0.0
01/03:30pm 19.8 18.1 8.5 48 6.0 ENE 7 9 4 5 1024.3 1024.5 0.0
01/03:00pm 21.2 19.1 5.9 37 7.7 ENE 6 9 3 5 1024.6 1024.7 0.0
01/02:30pm 22.1 20.3 3.3 29 9.1 SE 2 6 1 3 1024.7 1024.8 0.0
01/02:00pm 20.9 19.8 5.3 36 7.7 CALM 0 0 0 0 1024.7 1024.8 0.0
01/01:30pm 20.8 18.5 5.6 37 7.6 WSW 7 9 4 5 1024.5 1024.6 0.0
01/01:00pm 20.7 18.4 5.9 38 7.4 SW 7 9 4 5 1024.8 1024.9 0.0
01/12:30pm 20.1 17.0 5.7 39 7.2 W 11 17 6 9 1024.9 1025.0 0.0
01/12:00pm 19.0 16.1 6.5 44 6.3 W 11 15 6 8 1025.4 1025.5 0.0
01/11:30am 18.2 15.0 5.1 42 6.4 WSW 11 17 6 9 1025.9 1026.0 0.0
01/11:00am 19.3 15.5 3.9 36 7.4 NW 13 19 7 10 1026.3 1026.4 0.0
01/10:30am 18.3 13.3 3.4 37 7.0 NNW 19 24 10 13 1026.5 1026.6 0.0
01/10:00am 16.8 12.6 3.8 42 6.1 NNW 15 24 8 13 1026.5 1026.6 0.0
01/09:30am 16.5 13.0 3.6 42 6.0 NNW 11 19 6 10 1026.6 1026.7 0.0
01/09:00am 13.9 10.4 3.4 49 4.8 NNW 11 17 6 9 1026.6 1026.7 0.0
01/08:30am 12.4 8.4 3.1 53 4.2 NNW 13 17 7 9 1026.1 1026.2 0.0
01/08:00am 12.3 8.2 2.5 51 4.3 NNW 13 17 7 9 1026.1 1026.2 0.0
01/07:30am 12.1 8.4 2.3 51 4.3 NNW 11 15 6 8 1025.7 1025.7 0.0
01/07:00am 11.9 7.8 2.1 51 4.2 NNW 13 17 7 9 1025.6 1025.6 0.0
01/06:30am 12.4 8.6 2.0 49 4.5 NNW 11 19 6 10 1025.3 1025.3 0.0
01/06:00am 12.3 9.0 2.2 50 4.4 NNW 9 17 5 9 1024.9 1024.9 0.0
01/05:30am 12.7 9.7 2.0 48 4.7 NNW 7 15 4 8 1024.8 1024.8 0.0
01/05:00am 12.4 9.0 2.0 49 4.5 NNW 9 13 5 7 1024.8 1024.8 0.0
01/04:30am 12.4 9.6 2.0 49 4.5 NNW 6 9 3 5 1024.6 1024.6 0.0
01/04:00am 13.0 9.2 2.0 47 4.8 N 11 19 6 10 1024.6 1024.6 0.0
01/03:30am 12.5 9.1 2.1 49 4.5 NNW 9 11 5 6 1024.5 1024.5 0.0
01/03:00am 12.0 9.2 2.2 51 4.3 NNW 6 7 3 4 1024.8 1024.8 0.0
01/02:30am 12.0 9.1 2.5 52 4.2 NNW 7 11 4 6 1025.0 1025.0 0.0
01/02:00am 11.5 8.8 2.8 55 3.8 NNW 6 9 3 5 1024.7 1024.7 0.0
01/01:30am 11.4 8.2 3.2 57 3.6 N 9 13 5 7 1024.9 1024.9 0.0
01/01:00am 11.6 7.7 3.4 57 3.6 N 13 19 7 10 1024.2 1024.3 0.0
01/12:30am 11.8 8.0 3.8 58 3.6 N 13 19 7 10 1024.3 1024.4 0.0
01/12:00am 11.7 8.3 4.0 59 3.5 NNE 11 15 6 8 1024.7 1024.7 0.0
 
Date/Time
WST
Temp
°C
App
Temp
°C
Dew
Point
Rel
Hum
%
Delta-T
°C
Wind Press
QNH
hPa
Press
MSL
hPa
Rain
since 9 am
mm
Dir
 
Spd
km/h
Gust
km/h
Spd
kts
Gust
kts
30/11:30pm 12.0 8.6 4.0 58 3.6 N 11 15 6 8 1025.2 1025.2 0.0
30/11:00pm 12.4 8.7 4.4 58 3.7 NNE 13 17 7 9 1024.7 1024.7 0.0
30/10:30pm 12.0 9.4 4.2 59 3.6 N 7 11 4 6 1025.1 1025.1 0.0
30/10:00pm 12.7 8.8 3.6 54 4.1 N 13 17 7 9 1024.9 1024.9 0.0
30/09:30pm 12.7 9.0 4.2 56 3.9 NNE 13 17 7 9 1024.8 1024.8 0.0
30/09:00pm 12.6 9.7 4.6 58 3.7 N 9 13 5 7 1025.0 1025.0 0.0
30/08:30pm 12.5 9.7 5.0 60 3.5 N 9 13 5 7 1025.0 1025.0 0.0
30/08:00pm 12.8 9.9 4.8 58 3.7 NNE 9 11 5 6 1024.7 1024.7 0.0
30/07:30pm 13.0 10.4 4.4 56 4.0 N 7 9 4 5 1025.0 1025.0 0.0
30/07:00pm 13.5 10.9 4.1 53 4.3 N 7 7 4 4 1024.9 1024.9 0.0
30/06:30pm 13.6 10.9 3.9 52 4.5 N 7 9 4 5 1025.1 1025.1 0.0
30/06:00pm 14.2 11.5 3.9 50 4.7 N 7 9 4 5 1024.7 1024.7 0.0
30/05:30pm 14.5 12.0 3.9 49 4.9 N 6 7 3 4 1024.5 1024.5 0.0
30/05:00pm 15.7 13.4 5.0 49 5.1 NNW 6 7 3 4 1024.1 1024.2 0.0
30/04:30pm 15.9 14.0 6.9 55 4.5 NNW 6 7 3 4 1023.6 1023.6 0.0
30/04:00pm 18.8 15.9 4.6 39 6.9 N 9 11 5 6 1023.2 1023.2 0.0
30/03:30pm 20.5 17.3 2.8 31 8.4 NNW 9 15 5 8 1023.2 1023.2 0.0
30/03:00pm 20.5 16.3 1.9 29 8.6 NNW 13 17 7 9 1023.4 1023.4 0.0
30/02:30pm 20.7 16.6 2.5 30 8.6 NNW 13 19 7 10 1023.6 1023.6 0.0
30/02:00pm 21.0 16.1 1.8 28 8.9 NNW 17 26 9 14 1023.5 1023.5 0.0
30/01:30pm 21.2 16.5 3.4 31 8.6 NNW 17 26 9 14 1023.7 1023.7 0.0
30/01:00pm 20.2 15.3 2.1 30 8.4 NNW 17 24 9 13 1024.1 1024.2 0.0
30/12:30pm 20.9 16.6 3.2 31 8.5 NW 15 24 8 13 1024.5 1024.5 0.0
30/12:00pm 19.3 14.1 2.2 32 7.9 NW 19 26 10 14 1025.0 1025.0 0.0
30/11:30am 18.6 13.4 2.4 34 7.5 NNW 19 28 10 15 1025.4 1025.4 0.0
30/11:00am 18.6 13.1 2.0 33 7.6 NNW 20 30 11 16 1025.7 1025.7 0.0

Other Formats:

Comma delimited format used in spreadsheet applications
http://www.bom.gov.au/fwo/IDW60801/IDW60801.95644.axf

JavaScript Object Notation format (JSON) in row-major order
http://www.bom.gov.au/fwo/IDW60801/IDW60801.95644.json